createdAt,value
2022-08-17T00:00:34.413Z,19.70
2022-08-17T00:03:17.787Z,23.30
2022-08-17T00:06:01.862Z,17.20
2022-08-17T00:08:52.951Z,17.00
2022-08-17T00:11:28.910Z,17.10
2022-08-17T00:14:03.932Z,19.60
2022-08-17T00:16:50.993Z,21.10
2022-08-17T00:19:26.781Z,22.40
2022-08-17T00:22:32.410Z,18.60
2022-08-17T00:24:46.284Z,21.40
2022-08-17T00:27:14.509Z,16.60
2022-08-17T00:29:42.644Z,15.10
2022-08-17T00:33:16.011Z,18.40
2022-08-17T00:34:59.586Z,18.50
2022-08-17T00:37:27.745Z,16.90
2022-08-17T00:39:55.850Z,23.10
2022-08-17T00:42:27.588Z,27.10
2022-08-17T00:44:59.304Z,18.30
2022-08-17T00:47:27.546Z,19.90
2022-08-17T00:49:55.900Z,16.70
2022-08-17T00:52:30.554Z,18.40
2022-08-17T00:54:59.833Z,13.60
2022-08-17T00:57:39.506Z,12.90
2022-08-17T01:00:28.236Z,11.10
2022-08-17T01:03:02.291Z,19.40
2022-08-17T01:05:33.309Z,16.70
2022-08-17T01:08:02.709Z,15.00
2022-08-17T01:10:58.624Z,15.90
2022-08-17T01:13:28.762Z,13.60
2022-08-17T01:16:07.474Z,21.80
2022-08-17T01:18:36.271Z,12.90
2022-08-17T01:21:11.463Z,15.30
2022-08-17T01:23:42.202Z,14.60
2022-08-17T01:26:10.591Z,17.70
2022-08-17T01:28:53.778Z,15.50
2022-08-17T01:31:28.836Z,14.80
2022-08-17T01:34:00.607Z,19.20
2022-08-17T01:36:30.705Z,18.90
2022-08-17T01:39:00.204Z,12.10
2022-08-17T01:41:28.623Z,16.40
2022-08-17T01:44:06.451Z,16.90
2022-08-17T01:46:37.044Z,14.40
2022-08-17T01:49:10.876Z,14.10
2022-08-17T01:51:39.767Z,11.90
2022-08-17T01:54:13.737Z,14.70
2022-08-17T01:56:47.217Z,17.80
2022-08-17T01:59:18.477Z,20.40
2022-08-17T02:01:47.159Z,18.50
2022-08-17T02:04:15.443Z,19.40
2022-08-17T02:06:52.643Z,15.60
2022-08-17T02:09:26.056Z,18.10
2022-08-17T02:11:58.591Z,16.10
2022-08-17T02:14:27.169Z,12.50
2022-08-17T02:16:56.178Z,14.30
2022-08-17T02:19:24.359Z,18.50
2022-08-17T02:21:54.067Z,13.70
2022-08-17T02:24:58.378Z,14.30
2022-08-17T02:27:15.687Z,20.60
2022-08-17T02:29:43.856Z,20.50
2022-08-17T02:32:20.879Z,16.80
2022-08-17T02:34:56.995Z,18.60
2022-08-17T02:37:27.134Z,23.10
2022-08-17T02:39:59.558Z,26.40
2022-08-17T02:42:34.510Z,21.80
2022-08-17T02:45:04.396Z,25.40
2022-08-17T02:47:32.659Z,22.50
2022-08-17T02:50:00.974Z,25.50
2022-08-17T02:52:43.611Z,21.70
2022-08-17T02:55:17.410Z,26.60
2022-08-17T02:57:45.891Z,24.90
2022-08-17T03:00:23.307Z,25.40
2022-08-17T03:02:52.429Z,20.30
2022-08-17T03:05:22.933Z,23.10
2022-08-17T03:07:52.495Z,17.60
2022-08-17T03:10:21.634Z,22.70
2022-08-17T03:12:50.736Z,24.50
2022-08-17T03:15:33.538Z,22.80
2022-08-17T03:18:02.410Z,18.40
2022-08-17T03:20:32.440Z,17.60
2022-08-17T03:23:02.740Z,22.90
2022-08-17T03:25:36.740Z,17.00
2022-08-17T03:28:07.613Z,21.20
2022-08-17T03:30:35.893Z,22.70
2022-08-17T03:33:06.080Z,19.50
2022-08-17T03:35:36.757Z,28.20
2022-08-17T03:38:05.502Z,16.80
2022-08-17T03:40:55.530Z,22.80
2022-08-17T03:43:23.297Z,22.50
2022-08-17T03:46:27.221Z,22.10
2022-08-17T03:49:16.758Z,18.20
2022-08-17T03:52:03.528Z,22.80
2022-08-17T03:54:50.308Z,20.10
2022-08-17T03:57:19.336Z,21.00
2022-08-17T03:59:47.983Z,26.10
2022-08-17T04:02:30.179Z,29.10
2022-08-17T04:04:59.124Z,23.40
2022-08-17T04:07:30.551Z,21.30
2022-08-17T04:09:59.536Z,18.60
2022-08-17T04:12:32.105Z,24.80
2022-08-17T04:15:00.419Z,25.70
2022-08-17T04:17:29.694Z,29.60
2022-08-17T04:19:57.985Z,28.10
2022-08-17T04:22:30.099Z,28.10
2022-08-17T04:25:01.595Z,30.30
2022-08-17T04:27:29.791Z,31.70
2022-08-17T04:29:58.818Z,35.40
2022-08-17T04:33:00.674Z,34.50
2022-08-17T04:35:22.533Z,32.10
2022-08-17T04:37:52.100Z,29.30
2022-08-17T04:40:40.406Z,34.10
2022-08-17T04:43:15.447Z,37.00
2022-08-17T04:45:55.686Z,39.60
2022-08-17T04:48:36.486Z,37.80
2022-08-17T04:51:10.600Z,42.80
2022-08-17T04:53:41.802Z,35.20
2022-08-17T04:56:11.879Z,34.80
2022-08-17T04:58:47.949Z,34.40
2022-08-17T05:01:23.970Z,32.10
2022-08-17T05:04:02.302Z,36.60
2022-08-17T05:06:50.263Z,28.00
2022-08-17T05:09:19.132Z,30.80
2022-08-17T05:11:47.722Z,40.20
2022-08-17T05:14:16.140Z,39.20
2022-08-17T05:16:45.883Z,37.60
2022-08-17T05:19:14.150Z,34.30
2022-08-17T05:21:42.393Z,32.20
2022-08-17T05:24:35.381Z,41.10
2022-08-17T05:27:02.613Z,40.60
2022-08-17T05:29:35.527Z,43.90
2022-08-17T05:32:38.581Z,44.10
2022-08-17T05:35:05.906Z,36.30
2022-08-17T05:37:34.008Z,39.80
2022-08-17T05:40:02.494Z,43.30
2022-08-17T05:42:30.681Z,46.70
2022-08-17T05:44:59.006Z,37.20
2022-08-17T05:47:28.403Z,31.40
2022-08-17T05:49:57.595Z,35.00
2022-08-17T05:52:43.130Z,27.70
2022-08-17T05:55:28.896Z,35.00
2022-08-17T05:58:00.231Z,27.40
2022-08-17T06:00:42.111Z,34.70
2022-08-17T06:03:27.908Z,35.70
2022-08-17T06:05:58.761Z,33.80
2022-08-17T06:08:51.499Z,32.10
2022-08-17T06:11:37.327Z,28.70
2022-08-17T06:14:31.220Z,29.10
2022-08-17T06:17:04.880Z,25.80
2022-08-17T06:19:43.646Z,30.20
2022-08-17T06:22:15.574Z,28.70
2022-08-17T06:24:51.604Z,35.10
2022-08-17T06:27:54.330Z,24.70
2022-08-17T06:30:29.161Z,24.10
2022-08-17T06:33:26.171Z,25.00
2022-08-17T06:36:10.356Z,30.50
2022-08-17T06:38:51.776Z,21.70
2022-08-17T06:41:30.071Z,22.90
2022-08-17T06:44:50.205Z,28.20
2022-08-17T06:47:28.646Z,24.10
2022-08-17T06:50:18.979Z,25.30
2022-08-17T06:53:09.058Z,28.70
2022-08-17T06:55:56.064Z,22.80
2022-08-17T06:58:29.841Z,28.20
2022-08-17T07:01:04.707Z,22.60
2022-08-17T07:06:28.759Z,30.00
2022-08-17T07:09:23.479Z,21.90
2022-08-17T07:12:10.373Z,21.60
2022-08-17T07:14:51.987Z,26.90
2022-08-17T07:17:46.841Z,20.50
2022-08-17T07:20:20.714Z,21.00
2022-08-17T07:22:59.587Z,19.20
2022-08-17T07:25:30.999Z,19.20
2022-08-17T07:28:05.302Z,19.00
2022-08-17T07:30:47.508Z,23.40
2022-08-17T07:33:20.711Z,17.30
2022-08-17T07:35:50.169Z,16.60
2022-08-17T07:38:31.279Z,15.50
2022-08-17T07:41:06.305Z,22.30
2022-08-17T07:43:38.114Z,15.90
2022-08-17T07:46:34.136Z,19.10
2022-08-17T07:49:07.585Z,18.60
2022-08-17T07:51:43.891Z,18.70
2022-08-17T07:54:22.577Z,22.60
2022-08-17T07:56:53.716Z,22.80
2022-08-17T07:59:34.908Z,20.60
2022-08-17T08:02:17.371Z,26.60
2022-08-17T08:05:46.712Z,24.50
2022-08-17T08:08:29.258Z,27.50
2022-08-17T08:11:06.358Z,19.00
2022-08-17T08:13:42.442Z,21.60
2022-08-17T08:16:27.715Z,21.10
2022-08-17T08:19:00.851Z,18.90
2022-08-17T08:21:51.521Z,16.10
2022-08-17T08:24:38.602Z,25.70
2022-08-17T08:27:22.406Z,13.50
2022-08-17T08:29:50.546Z,16.40
2022-08-17T08:32:37.378Z,17.10
2022-08-17T08:35:34.407Z,20.00
2022-08-17T08:38:30.955Z,16.50
2022-08-17T08:41:13.141Z,18.60
2022-08-17T08:44:03.869Z,16.40
2022-08-17T08:47:02.323Z,18.50
2022-08-17T08:50:05.835Z,19.50
2022-08-17T08:52:46.447Z,22.30
2022-08-17T08:55:45.233Z,17.80
2022-08-17T08:58:32.050Z,21.00
2022-08-17T09:01:18.505Z,15.80
2022-08-17T09:04:24.288Z,23.50
2022-08-17T09:07:08.487Z,19.40
2022-08-17T09:09:48.452Z,15.00
2022-08-17T09:12:45.669Z,15.20
2022-08-17T09:15:48.242Z,22.40
2022-08-17T09:19:02.377Z,16.10
2022-08-17T09:21:48.197Z,14.30
2022-08-17T09:24:26.040Z,21.90
2022-08-17T09:27:16.291Z,13.90
2022-08-17T09:29:51.647Z,19.70
2022-08-17T09:32:34.317Z,17.30
2022-08-17T09:35:12.437Z,20.00
2022-08-17T09:38:07.031Z,17.20
2022-08-17T09:41:07.093Z,18.20
2022-08-17T09:43:47.155Z,18.20
2022-08-17T09:46:31.998Z,21.20
2022-08-17T09:49:05.862Z,19.00
2022-08-17T09:51:43.896Z,12.40
2022-08-17T09:54:41.769Z,13.20
2022-08-17T09:57:31.659Z,10.70
2022-08-17T10:00:36.709Z,15.10
2022-08-17T10:03:28.369Z,12.00
2022-08-17T10:06:22.037Z,13.90
2022-08-17T10:09:27.390Z,14.60
2022-08-17T10:12:19.966Z,11.90
2022-08-17T10:15:14.665Z,21.40
2022-08-17T10:17:45.404Z,15.60
2022-08-17T10:20:42.964Z,16.30
2022-08-17T10:23:37.110Z,16.40
2022-08-17T10:26:13.420Z,12.20
2022-08-17T10:29:09.604Z,13.10
2022-08-17T10:31:42.695Z,17.20
2022-08-17T10:34:49.479Z,13.00
2022-08-17T10:37:43.591Z,16.80
2022-08-17T10:40:51.775Z,16.20
2022-08-17T10:44:37.906Z,14.20
2022-08-17T10:47:19.545Z,11.10
2022-08-17T10:49:53.760Z,12.00
2022-08-17T10:52:28.316Z,13.00
2022-08-17T10:54:58.447Z,9.50
2022-08-17T10:57:27.953Z,9.90
2022-08-17T10:59:59.228Z,11.40
2022-08-17T11:02:38.630Z,12.70
2022-08-17T11:05:20.876Z,12.20
2022-08-17T11:08:15.494Z,10.20
2022-08-17T11:10:49.945Z,11.50
2022-08-17T11:13:45.069Z,12.20
2022-08-17T11:16:37.820Z,9.60
2022-08-17T11:19:24.419Z,14.10
2022-08-17T11:22:17.636Z,11.80
2022-08-17T11:24:51.374Z,9.80
2022-08-17T11:27:34.177Z,10.00
2022-08-17T11:30:12.140Z,11.00
2022-08-17T11:32:53.013Z,9.80
2022-08-17T11:35:22.890Z,8.50
2022-08-17T11:38:18.467Z,10.00
2022-08-17T11:41:08.057Z,11.10
2022-08-17T11:44:01.910Z,7.70
2022-08-17T11:47:10.806Z,14.50
2022-08-17T11:50:00.494Z,8.20
2022-08-17T11:52:42.269Z,10.00
2022-08-17T11:55:35.741Z,10.40
2022-08-17T11:58:27.178Z,9.20
2022-08-17T12:01:00.948Z,10.60
2022-08-17T12:03:32.137Z,11.40
2022-08-17T12:06:11.270Z,14.80
2022-08-17T12:08:45.457Z,14.60
2022-08-17T12:12:11.811Z,14.80
2022-08-17T12:15:09.605Z,11.70
2022-08-17T12:17:41.524Z,8.20
2022-08-17T12:20:20.171Z,6.40
2022-08-17T12:23:09.533Z,8.70
2022-08-17T12:25:40.150Z,9.70
2022-08-17T12:28:25.321Z,9.20
2022-08-17T12:30:56.472Z,9.10
2022-08-17T12:33:28.547Z,6.70
2022-08-17T12:36:06.621Z,8.20
2022-08-17T12:38:37.240Z,7.20
2022-08-17T12:41:26.059Z,8.00
2022-08-17T12:44:13.857Z,7.70
2022-08-17T12:47:07.670Z,6.90
2022-08-17T12:49:39.455Z,7.20
2022-08-17T12:52:19.630Z,8.30
2022-08-17T12:55:07.052Z,6.70
2022-08-17T12:57:47.461Z,12.50
2022-08-17T13:00:18.665Z,11.20
2022-08-17T13:02:59.759Z,8.10
2022-08-17T13:05:41.281Z,13.00
2022-08-17T13:08:28.626Z,11.20
2022-08-17T13:11:01.038Z,8.10
2022-08-17T13:13:35.278Z,6.70
2022-08-17T13:16:16.651Z,10.00
2022-08-17T13:18:55.684Z,9.60
2022-08-17T13:21:30.680Z,8.20
2022-08-17T13:24:10.867Z,7.80
2022-08-17T13:26:50.812Z,9.70
2022-08-17T13:29:19.530Z,10.70
2022-08-17T13:31:52.876Z,10.00
2022-08-17T13:34:26.714Z,9.00
2022-08-17T13:37:25.548Z,8.80
2022-08-17T13:40:10.161Z,10.20
2022-08-17T13:42:51.620Z,15.90
2022-08-17T13:45:34.985Z,8.40
2022-08-17T13:48:24.869Z,11.30
2022-08-17T13:50:55.821Z,8.60
2022-08-17T13:53:26.157Z,11.60
2022-08-17T13:55:58.596Z,10.70
2022-08-17T13:58:34.383Z,15.30
2022-08-17T14:01:33.310Z,8.80
2022-08-17T14:04:17.123Z,11.10
2022-08-17T14:07:04.932Z,9.90
2022-08-17T14:09:39.964Z,12.40
2022-08-17T14:12:15.453Z,15.60
2022-08-17T14:14:46.115Z,8.80
2022-08-17T14:17:14.179Z,11.10
2022-08-17T14:19:42.444Z,10.20
2022-08-17T14:22:23.768Z,10.10
2022-08-17T14:24:52.110Z,11.00
2022-08-17T14:27:21.517Z,9.80
2022-08-17T14:29:50.301Z,11.10
2022-08-17T14:32:23.895Z,12.00
2022-08-17T14:34:55.090Z,10.10
2022-08-17T14:37:26.488Z,13.30
2022-08-17T14:40:00.128Z,10.60
2022-08-17T14:42:32.699Z,12.20
2022-08-17T14:45:06.615Z,10.40
2022-08-17T14:47:54.714Z,10.50
2022-08-17T14:50:24.010Z,16.30
2022-08-17T14:52:52.484Z,12.90
2022-08-17T14:55:20.882Z,9.90
2022-08-17T14:57:49.765Z,14.50
2022-08-17T15:00:18.343Z,10.10
2022-08-17T15:02:56.107Z,12.50
2022-08-17T15:05:27.203Z,10.10
2022-08-17T15:07:55.999Z,13.00
2022-08-17T15:10:25.905Z,11.30
2022-08-17T15:12:54.645Z,12.10
2022-08-17T15:15:23.967Z,11.70
2022-08-17T15:17:52.189Z,11.70
2022-08-17T15:20:25.103Z,13.20
2022-08-17T15:22:55.693Z,15.00
2022-08-17T15:25:27.666Z,12.20
2022-08-17T15:27:56.542Z,11.80
2022-08-17T15:30:25.999Z,11.20
2022-08-17T15:32:56.843Z,16.10
2022-08-17T15:35:29.528Z,17.90
2022-08-17T15:38:10.631Z,13.00
2022-08-17T15:40:43.746Z,13.50
2022-08-17T15:43:16.037Z,16.60
2022-08-17T15:45:59.707Z,17.70
2022-08-17T15:48:41.582Z,11.00
2022-08-17T15:51:13.768Z,11.60
2022-08-17T15:53:44.636Z,12.70
2022-08-17T15:56:15.091Z,15.00
2022-08-17T15:58:44.878Z,11.10
2022-08-17T16:01:18.440Z,15.60
2022-08-17T16:04:05.123Z,13.70
2022-08-17T16:06:35.429Z,13.90
2022-08-17T16:09:04.190Z,11.70
2022-08-17T16:11:32.266Z,9.80
2022-08-17T16:14:00.500Z,10.00
2022-08-17T16:16:31.370Z,8.80
2022-08-17T16:18:59.578Z,11.80
2022-08-17T16:21:29.693Z,13.90
2022-08-17T16:24:13.699Z,11.10
2022-08-17T16:26:44.151Z,11.70
2022-08-17T16:29:12.453Z,21.50
2022-08-17T16:31:41.974Z,11.40
2022-08-17T16:34:17.717Z,10.20
2022-08-17T16:36:54.836Z,12.20
2022-08-17T16:39:29.375Z,10.90
2022-08-17T16:41:57.819Z,15.30
2022-08-17T16:44:29.115Z,14.90
2022-08-17T16:46:58.597Z,16.10
2022-08-17T16:49:36.670Z,15.40
2022-08-17T16:52:10.345Z,13.00
2022-08-17T16:54:43.801Z,13.20
2022-08-17T16:57:14.588Z,11.40
2022-08-17T16:59:47.809Z,10.70
2022-08-17T17:02:30.685Z,13.50
2022-08-17T17:05:14.158Z,14.90
2022-08-17T17:07:51.187Z,14.60
2022-08-17T17:10:24.321Z,14.60
2022-08-17T17:13:01.586Z,15.60
2022-08-17T17:15:53.711Z,20.30
2022-08-17T17:18:30.621Z,15.60
2022-08-17T17:21:01.281Z,17.60
2022-08-17T17:23:46.178Z,13.10
2022-08-17T17:26:33.163Z,16.60
2022-08-17T17:29:28.267Z,17.80
2022-08-17T17:32:09.525Z,15.40
2022-08-17T17:34:41.858Z,12.80
2022-08-17T17:37:19.860Z,14.60
2022-08-17T17:39:55.645Z,12.00
2022-08-17T17:42:28.930Z,26.60
2022-08-17T17:45:02.963Z,12.60
2022-08-17T17:47:33.005Z,20.90
2022-08-17T17:50:03.417Z,13.10
2022-08-17T17:52:41.010Z,12.40
2022-08-17T17:55:44.997Z,15.10
2022-08-17T17:58:27.775Z,13.10
2022-08-17T18:01:08.844Z,13.80
2022-08-17T18:03:59.313Z,13.00
2022-08-17T18:06:33.456Z,15.30
2022-08-17T18:09:21.403Z,15.80
2022-08-17T18:12:10.960Z,17.10
2022-08-17T18:15:21.555Z,17.80
2022-08-17T18:18:00.807Z,15.20
2022-08-17T18:20:43.129Z,16.30
2022-08-17T18:23:14.823Z,14.90
2022-08-17T18:25:45.176Z,13.70
2022-08-17T18:28:31.763Z,20.20
2022-08-17T18:31:18.152Z,16.70
2022-08-17T18:33:49.602Z,15.10
2022-08-17T18:36:37.007Z,19.80
2022-08-17T18:39:16.898Z,13.10
2022-08-17T18:41:50.519Z,16.70
2022-08-17T18:44:26.574Z,13.80
2022-08-17T18:47:27.347Z,14.20
2022-08-17T18:50:18.388Z,16.10
2022-08-17T18:52:48.693Z,21.10
2022-08-17T18:55:21.459Z,15.50
2022-08-17T18:57:52.731Z,23.10
2022-08-17T19:00:26.563Z,19.50
2022-08-17T19:03:14.672Z,15.60
2022-08-17T19:05:53.430Z,23.60
2022-08-17T19:08:34.321Z,21.60
2022-08-17T19:11:34.824Z,19.40
2022-08-17T19:14:10.731Z,19.40
2022-08-17T19:17:04.840Z,16.20
2022-08-17T19:19:58.295Z,16.20
2022-08-17T19:22:53.696Z,17.40
2022-08-17T19:25:27.532Z,17.90
2022-08-17T19:28:12.683Z,15.30
2022-08-17T19:30:57.177Z,17.30
2022-08-17T19:33:26.245Z,21.80
2022-08-17T19:36:14.352Z,16.40
2022-08-17T19:38:53.055Z,26.70
2022-08-17T19:41:34.004Z,30.50
2022-08-17T19:44:33.773Z,40.50
2022-08-17T19:47:43.073Z,19.20
2022-08-17T19:50:16.566Z,18.70
2022-08-17T19:52:47.398Z,15.90
2022-08-17T19:55:35.916Z,17.20
2022-08-17T19:58:12.919Z,17.20
2022-08-17T20:00:51.327Z,18.70
2022-08-17T20:04:03.066Z,15.30
2022-08-17T20:06:34.272Z,14.30
2022-08-17T20:09:14.341Z,13.90
2022-08-17T20:11:49.858Z,14.30
2022-08-17T20:14:23.803Z,15.40
2022-08-17T20:16:52.461Z,17.30
2022-08-17T20:19:49.228Z,17.70
2022-08-17T20:22:23.694Z,16.90
2022-08-17T20:25:01.727Z,14.50
2022-08-17T20:27:34.626Z,14.90
2022-08-17T20:30:12.037Z,13.90
2022-08-17T20:32:52.066Z,15.70
2022-08-17T20:35:27.155Z,13.80
2022-08-17T20:38:02.042Z,14.20
2022-08-17T20:41:04.204Z,13.20
2022-08-17T20:43:35.574Z,13.00
2022-08-17T20:46:15.557Z,14.00
2022-08-17T20:48:49.891Z,17.90
2022-08-17T20:51:32.596Z,13.40
2022-08-17T20:54:25.790Z,13.50
2022-08-17T20:56:57.573Z,13.60
2022-08-17T20:59:26.081Z,18.10
2022-08-17T21:02:08.939Z,14.60
2022-08-17T21:05:00.282Z,14.50
2022-08-17T21:07:52.281Z,20.20
2022-08-17T21:10:26.060Z,13.30
2022-08-17T21:13:23.035Z,14.70
2022-08-17T21:16:24.665Z,14.40
2022-08-17T21:18:59.424Z,19.90
2022-08-17T21:21:47.134Z,18.50
2022-08-17T21:24:31.511Z,20.00
2022-08-17T21:27:12.308Z,16.70
2022-08-17T21:30:06.711Z,12.70
2022-08-17T21:32:42.004Z,12.30
2022-08-17T21:35:47.313Z,15.00
2022-08-17T21:38:19.601Z,14.10
2022-08-17T21:40:52.717Z,14.50
2022-08-17T21:43:25.764Z,11.90
2022-08-17T21:45:57.736Z,16.50
2022-08-17T21:48:27.536Z,14.40
2022-08-17T21:51:06.751Z,14.20
2022-08-17T21:53:39.998Z,12.90
2022-08-17T21:56:09.935Z,12.40
2022-08-17T21:58:46.611Z,14.10
2022-08-17T22:01:34.564Z,13.70
2022-08-17T22:04:42.107Z,13.80
2022-08-17T22:07:13.425Z,13.30
2022-08-17T22:09:48.803Z,14.30
2022-08-17T22:12:27.242Z,14.00
2022-08-17T22:15:01.791Z,16.70
2022-08-17T22:17:40.432Z,18.20
2022-08-17T22:20:15.986Z,16.70
2022-08-17T22:23:05.397Z,14.70
2022-08-17T22:25:37.369Z,17.70
2022-08-17T22:28:08.829Z,16.20
2022-08-17T22:30:38.413Z,16.00
2022-08-17T22:33:43.702Z,17.80
2022-08-17T22:36:11.824Z,15.30
2022-08-17T22:38:41.705Z,16.90
2022-08-17T22:41:32.035Z,20.70
2022-08-17T22:44:37.890Z,17.40
2022-08-17T22:47:11.320Z,17.20
2022-08-17T22:49:53.368Z,16.50
2022-08-17T22:52:32.489Z,16.80
2022-08-17T22:55:32.467Z,17.40
2022-08-17T22:58:20.177Z,17.20
2022-08-17T23:00:49.629Z,17.30
2022-08-17T23:03:28.128Z,18.20
2022-08-17T23:06:09.679Z,20.60
2022-08-17T23:08:55.010Z,22.40
2022-08-17T23:11:42.994Z,17.20
2022-08-17T23:14:15.796Z,16.90
2022-08-17T23:16:43.931Z,17.60
2022-08-17T23:19:15.408Z,17.90
2022-08-17T23:21:45.019Z,17.20
2022-08-17T23:24:21.498Z,17.20
2022-08-17T23:26:49.742Z,17.60
2022-08-17T23:29:20.546Z,23.30
2022-08-17T23:31:51.270Z,18.50
2022-08-17T23:34:19.721Z,24.40
2022-08-17T23:36:52.979Z,16.80
2022-08-17T23:39:24.764Z,22.00
2022-08-17T23:41:59.095Z,21.00
2022-08-17T23:44:28.971Z,17.10
2022-08-17T23:46:57.461Z,17.00
2022-08-17T23:49:25.740Z,17.80
2022-08-17T23:51:54.784Z,22.00
2022-08-17T23:54:29.963Z,18.40
2022-08-17T23:56:58.011Z,19.00
2022-08-17T23:59:27.665Z,18.00
